Lördag 6 mars - FMI:s prognos

Daggp. Vind Medel Byar Luftfukt. Moln
16:00 Molnigt vindpil 8 m/s 14 m/s   1023 hPa 80 % 100 %
17:00 Molnigt -1° vindpil 8 m/s 14 m/s   1022 hPa 80 % 100 %
18:00 Molnigt -1° vindpil 8 m/s 15 m/s   1022 hPa 81 % 100 %
19:00 Molnigt -2° vindpil 8 m/s 15 m/s   1021 hPa 84 % 100 %
20:00 Molnigt -2° vindpil 8 m/s 14 m/s   1021 hPa 84 % 100 %
21:00 Molnigt -3° vindpil 8 m/s 14 m/s   1020 hPa 86 % 100 %
22:00 Molnigt -3° vindpil 8 m/s 14 m/s   1020 hPa 85 % 100 %
23:00 Molnigt -3° vindpil 8 m/s 14 m/s   1020 hPa 86 % 100 %

Söndag 7 mars - FMI:s prognos

Daggp. Vind Medel Byar Luftfukt. Moln
00:00 Molnigt -3° vindpil 8 m/s 14 m/s   1019 hPa 87 % 100 %
01:00 Molnigt -3° vindpil 8 m/s 15 m/s   1018 hPa 86 % 100 %
02:00 Molnigt -3° vindpil 9 m/s 16 m/s   1018 hPa 87 % 100 %
03:00 Molnigt -3° vindpil 9 m/s 16 m/s   1017 hPa 87 % 100 %
04:00 Molnigt -3° vindpil 8 m/s 16 m/s   1016 hPa 86 % 100 %
05:00 Molnigt -3° vindpil 8 m/s 14 m/s   1016 hPa 87 % 100 %
06:00 Molnigt -3° vindpil 8 m/s 14 m/s 0,1 mm 1016 hPa 87 % 100 %
07:00 Regn -3° vindpil 8 m/s 15 m/s 0,2 mm 1015 hPa 90 % 100 %
08:00 Regn -2° vindpil 8 m/s 15 m/s 0,3 mm 1015 hPa 92 % 100 %
09:00 Regn -1° vindpil 6 m/s 14 m/s   1015 hPa 94 % 98 %
10:00 Klart -1° vindpil 6 m/s 11 m/s   1016 hPa 77 % 4 %
11:00 Klart -5° vindpil 6 m/s 11 m/s   1016 hPa 59 % 0 %
12:00 Klart -8° vindpil 6 m/s 11 m/s   1017 hPa 50 % 0 %
13:00 Klart -10° vindpil 6 m/s 11 m/s   1017 hPa 45 % 5 %
14:00 Klart -10° vindpil 6 m/s 12 m/s   1017 hPa 46 % 2 %
15:00 Klart -1° -10° vindpil 6 m/s 12 m/s   1017 hPa 47 % 1 %
16:00 Klart -1° -11° vindpil 6 m/s 11 m/s   1017 hPa 48 % 0 %
17:00 Klart -2° -11° vindpil 5 m/s 10 m/s   1017 hPa 50 % 10 %
18:00 Klart -3° -10° vindpil 4 m/s 9 m/s   1017 hPa 56 % 3 %
19:00 Klart -4° -8° vindpil 3 m/s 6 m/s   1017 hPa 64 % 0 %
20:00 Molnigt -4° -8° vindpil 3 m/s 6 m/s   1017 hPa 66 % 98 %
21:00 Molnigt -4° -8° vindpil 4 m/s 6 m/s   1018 hPa 66 % 96 %
22:00 Molnigt -4° -8° vindpil 3 m/s 6 m/s   1018 hPa 67 % 96 %
23:00 Klart -1° -4° -7° vindpil 3 m/s 6 m/s   1019 hPa 72 % 7 %

Måndag 8 mars - FMI:s prognos

Daggp. Vind Medel Byar Luftfukt. Moln
00:00 Klart -1° -4° -5° vindpil 2 m/s 5 m/s   1019 hPa 79 % 0 %
01:00 Klart -1° -4° -5° vindpil 2 m/s 4 m/s   1019 hPa 84 % 0 %
02:00 Klart -2° -5° -5° vindpil 2 m/s 4 m/s   1019 hPa 82 % 0 %
03:00 Klart -2° -5° -7° vindpil 2 m/s 4 m/s   1020 hPa 78 % 0 %
04:00 Klart -3° -6° -8° vindpil 2 m/s 4 m/s   1020 hPa 76 % 3 %
05:00 Klart -3° -6° -8° vindpil 2 m/s 4 m/s   1020 hPa 75 % 10 %
06:00 Klart -4° -7° -9° vindpil 2 m/s 4 m/s   1020 hPa 74 % 25 %
07:00 Växlande molnighet -4° -7° -10° vindpil 2 m/s 4 m/s   1021 hPa 72 % 36 %
08:00 Klart -3° -6° -10° vindpil 2 m/s 4 m/s   1021 hPa 68 % 25 %
09:00 Klart -1° -5° -10° vindpil 3 m/s 5 m/s   1022 hPa 62 % 25 %
10:00 Klart -3° -11° vindpil 2 m/s 5 m/s   1022 hPa 56 % 21 %
11:00 Klart -1° -11° vindpil 2 m/s 5 m/s   1023 hPa 51 % 29 %
12:00 Klart -12° vindpil 2 m/s 5 m/s   1023 hPa 46 % 8 %
13:00 Klart -13° vindpil 2 m/s 5 m/s   1023 hPa 42 % 7 %
14:00 Klart -14° vindpil 2 m/s 5 m/s   1022 hPa 40 % 2 %
15:00 Klart -10° vindpil 3 m/s 6 m/s   1022 hPa 49 % 3 %
16:00 Växlande molnighet -1° -9° vindpil 3 m/s 7 m/s   1022 hPa 55 % 47 %
17:00 Molnigt -1° -10° vindpil 3 m/s 7 m/s   1022 hPa 54 % 96 %

Vädervarningar

Vädervarningar - från SMHI

Skåne län utom Österlen Risk Gräsbrand När: Lördag eftermiddag Var: Hela området Intensitet: Gräsbrandsrisken är stor Kommentar: -
Södra Östersjön Varning klass 1 kuling (14-17 m/s) Kommentar: Från lördag eftermiddag väst 15 m/s
Skåne län, Österlen Risk Gräsbrand När: Lördag eftermiddag Var: Hela området Intensitet: Gräsbrandsrisken är stor Kommentar: -
Sydvästra Östersjön Varning klass 1 lågt vattenstånd När: Från lördag kväll Var: I de stora farlederna Nivå: ca -50 cm i RH 2000 Kommentar:
Se alla vädervarningar

Väderstatistik och historik för Lund

Vädret för ett år sedan

Min Max Väderstation
2,3° 6,5° Lund N
2,8° 7,1° Gårdstånga
2,3° 6,5° Malmö ö
2,6° 7,0° Kyrkovången Södra...
2,4° 7,8° Löddeköpinge
Förra årets uppmätta temperaturer den 6 mar 2020.

Årstider

Sommaren anländer normalt om
64 dagar
Vår 23 februari
Sommar 9 maj
Höst 9 oktober
Vinter 5 januari
Årstidernas genomsnittliga ankomstdatum vid väderstationen Lund Lth (2 km bort). Källa: Bearbetning av SMHI:s normaltemperaturer.